createdAt,value
2022-11-18T00:00:08.507Z,8.73
2022-11-18T00:02:36.051Z,10.63
2022-11-18T00:05:03.324Z,6.03
2022-11-18T00:07:30.350Z,4.80
2022-11-18T00:10:05.363Z,5.53
2022-11-18T00:12:53.661Z,5.22
2022-11-18T00:15:26.366Z,7.97
2022-11-18T00:18:01.104Z,4.90
2022-11-18T00:20:28.408Z,4.85
2022-11-18T00:22:58.444Z,8.38
2022-11-18T00:25:25.596Z,6.10
2022-11-18T00:27:53.464Z,7.70
2022-11-18T00:30:20.268Z,7.13
2022-11-18T00:32:47.936Z,9.40
2022-11-18T00:35:16.006Z,9.90
2022-11-18T00:37:43.049Z,6.63
2022-11-18T00:40:10.740Z,10.05
2022-11-18T00:42:52.925Z,7.57
2022-11-18T00:45:26.986Z,4.63
2022-11-18T00:47:54.201Z,8.95
2022-11-18T00:50:26.383Z,13.65
2022-11-18T00:52:59.432Z,9.52
2022-11-18T00:55:37.011Z,8.30
2022-11-18T00:58:08.023Z,10.00
2022-11-18T01:00:34.580Z,3.88
2022-11-18T01:03:03.709Z,7.53
2022-11-18T01:10:54.752Z,5.88
2022-11-18T01:13:25.887Z,6.70
2022-11-18T01:15:57.531Z,6.57
2022-11-18T01:18:29.507Z,5.65
2022-11-18T01:21:00.803Z,8.40
2022-11-18T01:23:28.418Z,8.07
2022-11-18T01:25:56.204Z,8.10
2022-11-18T01:28:24.351Z,4.65
2022-11-18T01:30:53.987Z,7.82
2022-11-18T01:33:26.839Z,8.63
2022-11-18T01:35:54.212Z,5.75
2022-11-18T01:38:22.239Z,4.40
2022-11-18T01:43:38.412Z,7.47
2022-11-18T01:46:14.794Z,7.10
2022-11-18T01:48:46.128Z,5.82
2022-11-18T01:51:17.639Z,3.88
2022-11-18T01:53:50.423Z,5.03
2022-11-18T01:56:24.500Z,7.53
2022-11-18T01:58:56.498Z,8.15
2022-11-18T02:01:24.279Z,4.60
2022-11-18T02:03:52.636Z,3.90
2022-11-18T02:06:22.407Z,3.60
2022-11-18T02:08:55.308Z,4.35
2022-11-18T02:11:43.524Z,4.95
2022-11-18T02:14:13.998Z,3.92
2022-11-18T02:17:10.787Z,6.28
2022-11-18T02:19:57.020Z,5.43
2022-11-18T02:22:32.319Z,5.13
2022-11-18T02:25:19.138Z,4.47
2022-11-18T02:28:07.228Z,3.40
2022-11-18T02:30:50.703Z,4.32
2022-11-18T02:33:25.306Z,5.80
2022-11-18T02:36:16.370Z,6.13
2022-11-18T02:38:55.141Z,6.47
2022-11-18T02:41:24.337Z,4.78
2022-11-18T02:46:45.685Z,9.88
2022-11-18T02:49:27.756Z,4.72
2022-11-18T02:54:45.311Z,6.15
2022-11-18T02:57:21.522Z,8.23
2022-11-18T02:59:58.135Z,7.18
2022-11-18T03:02:28.414Z,7.75
2022-11-18T03:05:00.722Z,6.97
2022-11-18T03:07:34.868Z,7.15
2022-11-18T03:10:08.433Z,3.47
2022-11-18T03:15:53.835Z,3.60
2022-11-18T03:18:24.085Z,7.65
2022-11-18T03:23:46.248Z,6.40
2022-11-18T03:26:25.684Z,6.25
2022-11-18T03:29:04.830Z,6.65
2022-11-18T03:31:44.859Z,10.15
2022-11-18T03:34:18.418Z,7.60
2022-11-18T03:36:52.002Z,6.88
2022-11-18T03:39:25.254Z,6.85
2022-11-18T03:42:03.173Z,9.60
2022-11-18T03:47:20.445Z,10.32
2022-11-18T03:49:53.849Z,7.13
2022-11-18T03:52:26.532Z,3.72
2022-11-18T03:54:55.472Z,5.73
2022-11-18T03:57:30.143Z,9.63
2022-11-18T04:00:04.119Z,4.32
2022-11-18T04:02:40.687Z,5.47
2022-11-18T04:05:19.447Z,8.10
2022-11-18T04:07:49.611Z,6.93
2022-11-18T04:10:26.290Z,3.40
2022-11-18T04:13:11.574Z,5.03
2022-11-18T04:15:46.240Z,8.45
2022-11-18T04:18:19.782Z,8.70
2022-11-18T04:23:24.572Z,6.70
2022-11-18T04:33:59.455Z,7.70
2022-11-18T04:42:03.078Z,6.40
2022-11-18T04:44:34.479Z,5.75
2022-11-18T04:47:03.631Z,10.15
2022-11-18T04:49:31.499Z,7.28
2022-11-18T04:51:59.155Z,5.25
2022-11-18T04:54:28.982Z,10.30
2022-11-18T04:56:56.549Z,5.90
2022-11-18T04:59:32.957Z,6.28
2022-11-18T05:02:14.089Z,4.90
2022-11-18T05:04:42.111Z,4.85
2022-11-18T05:07:09.358Z,7.25
2022-11-18T05:09:36.336Z,8.60
2022-11-18T05:12:27.999Z,9.30
2022-11-18T05:14:55.322Z,5.40
2022-11-18T05:17:25.209Z,7.35
2022-11-18T05:19:55.797Z,6.85
2022-11-18T05:22:23.615Z,5.43
2022-11-18T05:24:50.861Z,9.50
2022-11-18T05:27:18.442Z,12.60
2022-11-18T05:29:46.412Z,9.80
2022-11-18T05:32:20.219Z,9.13
2022-11-18T05:34:49.488Z,5.50
2022-11-18T05:37:23.753Z,9.25
2022-11-18T05:39:54.165Z,10.18
2022-11-18T05:42:40.495Z,5.35
2022-11-18T05:45:08.132Z,5.53
2022-11-18T05:47:56.521Z,8.23
2022-11-18T05:50:28.990Z,7.90
2022-11-18T05:52:56.882Z,8.57
2022-11-18T05:55:25.171Z,8.40
2022-11-18T05:57:53.149Z,8.32
2022-11-18T06:00:28.167Z,5.40
2022-11-18T06:02:56.489Z,10.32
2022-11-18T06:05:25.556Z,6.93
2022-11-18T06:10:38.518Z,9.05
2022-11-18T06:13:11.147Z,9.70
2022-11-18T06:15:44.155Z,9.40
2022-11-18T06:18:20.003Z,9.80
2022-11-18T06:20:53.495Z,9.85
2022-11-18T06:23:33.828Z,8.18
2022-11-18T06:26:07.505Z,13.52
2022-11-18T06:31:23.377Z,8.18
2022-11-18T06:33:50.665Z,11.52
2022-11-18T06:36:18.857Z,8.80
2022-11-18T06:38:50.801Z,9.95
2022-11-18T06:41:21.516Z,11.95
2022-11-18T06:43:49.678Z,11.20
2022-11-18T06:46:38.793Z,10.65
2022-11-18T06:49:11.404Z,9.32
2022-11-18T06:51:42.971Z,8.25
2022-11-18T06:54:11.251Z,8.68
2022-11-18T06:56:41.399Z,7.75
2022-11-18T06:59:13.013Z,12.80
2022-11-18T07:01:42.426Z,8.65
2022-11-18T07:04:11.998Z,8.60
2022-11-18T07:06:46.244Z,12.75
2022-11-18T07:12:06.827Z,10.30
2022-11-18T07:14:37.256Z,14.30
2022-11-18T07:17:08.607Z,15.43
2022-11-18T07:19:41.751Z,17.00
2022-11-18T07:22:24.462Z,15.27
2022-11-18T07:25:01.069Z,12.98
2022-11-18T07:27:40.456Z,12.95
2022-11-18T07:30:09.760Z,15.35
2022-11-18T07:32:43.174Z,11.20
2022-11-18T07:35:16.672Z,8.43
2022-11-18T07:40:20.201Z,14.75
2022-11-18T07:42:52.703Z,12.05
2022-11-18T07:45:26.038Z,15.70
2022-11-18T07:50:52.835Z,13.05
2022-11-18T07:53:20.940Z,12.45
2022-11-18T07:55:56.859Z,10.15
2022-11-18T07:58:23.893Z,12.45
2022-11-18T08:00:56.175Z,11.50
2022-11-18T08:03:27.425Z,9.80
2022-11-18T08:05:55.010Z,12.57
2022-11-18T08:08:21.755Z,10.55
2022-11-18T08:10:48.901Z,16.65
2022-11-18T08:13:17.034Z,14.85
2022-11-18T08:15:43.896Z,13.63
2022-11-18T08:18:13.707Z,9.95
2022-11-18T08:20:41.037Z,14.65
2022-11-18T08:23:10.737Z,11.23
2022-11-18T08:25:37.896Z,13.73
2022-11-18T08:28:07.907Z,10.85
2022-11-18T08:30:40.913Z,11.55
2022-11-18T08:33:08.037Z,22.50
2022-11-18T08:35:38.206Z,18.88
2022-11-18T08:38:05.363Z,15.10
2022-11-18T08:40:35.144Z,11.23
2022-11-18T08:43:03.143Z,12.30
2022-11-18T08:45:32.608Z,14.63
2022-11-18T08:47:59.424Z,19.27
2022-11-18T08:50:26.655Z,10.45
2022-11-18T08:52:58.086Z,7.65
2022-11-18T08:55:25.116Z,12.57
2022-11-18T08:57:52.428Z,9.85
2022-11-18T09:00:19.940Z,9.95
2022-11-18T09:02:46.773Z,11.95
2022-11-18T09:05:13.811Z,9.27
2022-11-18T09:07:40.783Z,10.85
2022-11-18T09:10:13.543Z,5.93
2022-11-18T09:12:40.905Z,13.70
2022-11-18T09:15:13.792Z,12.95
2022-11-18T09:17:44.564Z,7.68
2022-11-18T09:20:11.529Z,7.72
2022-11-18T09:22:42.407Z,6.70
2022-11-18T09:25:12.939Z,8.88
2022-11-18T09:27:42.799Z,9.50
2022-11-18T09:30:10.019Z,7.55
2022-11-18T09:32:37.108Z,12.57
2022-11-18T09:35:04.269Z,15.20
2022-11-18T09:37:31.162Z,8.52
2022-11-18T09:39:58.125Z,14.57
2022-11-18T09:42:45.026Z,13.18
2022-11-18T09:45:24.487Z,12.65
2022-11-18T09:47:52.095Z,12.70
2022-11-18T09:53:21.389Z,13.98
2022-11-18T09:55:49.171Z,14.23
2022-11-18T09:58:18.690Z,12.80
2022-11-18T10:00:46.885Z,8.52
2022-11-18T10:03:22.910Z,13.75
2022-11-18T10:05:49.885Z,11.85
2022-11-18T10:08:32.781Z,8.73
2022-11-18T10:11:17.122Z,9.10
2022-11-18T10:13:43.800Z,11.02
2022-11-18T10:16:19.792Z,10.52
2022-11-18T10:19:00.635Z,11.57
2022-11-18T10:21:46.501Z,9.52
2022-11-18T10:24:20.620Z,13.23
2022-11-18T10:26:47.598Z,12.10
2022-11-18T10:29:17.377Z,10.13
2022-11-18T10:31:59.730Z,7.03
2022-11-18T10:34:36.026Z,15.00
2022-11-18T10:37:31.200Z,9.88
2022-11-18T10:40:23.092Z,15.38
2022-11-18T10:42:49.952Z,7.40
2022-11-18T10:45:16.979Z,10.52
2022-11-18T10:47:43.849Z,9.38
2022-11-18T10:50:29.517Z,10.73
2022-11-18T10:52:57.187Z,13.40
2022-11-18T10:55:28.068Z,11.50
2022-11-18T10:58:03.751Z,5.90
2022-11-18T11:00:39.141Z,7.53
2022-11-18T11:03:20.554Z,7.97
2022-11-18T11:05:47.366Z,8.65
2022-11-18T11:08:36.280Z,12.38
2022-11-18T11:11:04.785Z,9.75
2022-11-18T11:13:35.781Z,10.05
2022-11-18T11:16:06.366Z,8.80
2022-11-18T11:18:50.277Z,10.38
2022-11-18T11:21:22.408Z,8.07
2022-11-18T11:23:55.174Z,7.93
2022-11-18T11:36:49.101Z,8.48
2022-11-18T11:39:22.167Z,7.60
2022-11-18T11:41:53.487Z,15.05
2022-11-18T11:44:27.941Z,12.80
2022-11-18T11:47:19.384Z,11.73
2022-11-18T11:49:48.879Z,11.35
2022-11-18T11:52:32.404Z,8.68
2022-11-18T11:55:10.353Z,10.10
2022-11-18T11:57:46.165Z,11.23
2022-11-18T12:00:19.897Z,9.10
2022-11-18T12:08:22.170Z,12.77
2022-11-18T12:11:06.454Z,13.23
2022-11-18T12:13:52.813Z,9.65
2022-11-18T12:16:45.263Z,7.53
2022-11-18T12:19:17.513Z,10.30
2022-11-18T12:21:52.084Z,7.43
2022-11-18T12:24:47.045Z,10.13
2022-11-18T12:27:33.938Z,12.38
2022-11-18T12:30:07.895Z,5.35
2022-11-18T12:32:53.118Z,11.77
2022-11-18T12:35:27.320Z,7.93
2022-11-18T12:37:54.527Z,10.20
2022-11-18T12:40:32.646Z,8.50
2022-11-18T12:43:26.306Z,9.98
2022-11-18T12:45:54.835Z,10.00
2022-11-18T12:48:27.685Z,9.23
2022-11-18T12:50:56.293Z,11.13
2022-11-18T12:53:29.805Z,13.75
2022-11-18T12:58:26.725Z,9.05
2022-11-18T13:03:53.709Z,10.30
2022-11-18T13:06:30.358Z,11.80
2022-11-18T13:08:59.281Z,13.35
2022-11-18T13:11:45.485Z,11.65
2022-11-18T13:14:36.136Z,6.35
2022-11-18T13:17:22.277Z,10.00
2022-11-18T13:20:01.998Z,5.90
2022-11-18T13:22:48.566Z,7.80
2022-11-18T13:25:22.892Z,8.43
2022-11-18T13:27:52.863Z,8.60
2022-11-18T13:30:19.919Z,8.02
2022-11-18T13:32:47.998Z,11.77
2022-11-18T13:35:16.832Z,5.65
2022-11-18T13:37:54.367Z,9.70
2022-11-18T13:40:23.064Z,7.43
2022-11-18T13:42:50.267Z,6.47
2022-11-18T13:45:28.852Z,7.90
2022-11-18T13:47:58.569Z,9.07
2022-11-18T13:50:25.517Z,9.40
2022-11-18T13:53:24.443Z,13.05
2022-11-18T13:56:00.893Z,10.52
2022-11-18T13:58:33.984Z,6.53
2022-11-18T14:01:14.535Z,11.00
2022-11-18T14:03:59.200Z,6.10
2022-11-18T14:06:35.773Z,6.30
2022-11-18T14:09:06.402Z,5.85
2022-11-18T14:11:40.416Z,11.98
2022-11-18T14:14:07.996Z,12.65
2022-11-18T14:16:37.379Z,9.30
2022-11-18T14:19:13.045Z,12.52
2022-11-18T14:21:42.935Z,8.93
2022-11-18T14:24:17.798Z,11.65
2022-11-18T14:26:46.555Z,6.72
2022-11-18T14:29:25.569Z,9.63
2022-11-18T14:32:24.791Z,10.68
2022-11-18T14:35:03.603Z,13.73
2022-11-18T14:37:33.719Z,10.80
2022-11-18T14:40:00.503Z,17.45
2022-11-18T14:42:27.308Z,11.27
2022-11-18T14:45:03.553Z,12.10
2022-11-18T14:47:30.472Z,18.85
2022-11-18T14:49:57.288Z,20.67
2022-11-18T14:52:24.002Z,12.05
2022-11-18T14:54:52.328Z,12.52
2022-11-18T14:57:19.285Z,8.65
2022-11-18T14:59:48.877Z,7.75
2022-11-18T15:02:16.627Z,10.30
2022-11-18T15:04:43.300Z,6.93
2022-11-18T15:07:18.596Z,12.57
2022-11-18T15:09:49.728Z,10.77
2022-11-18T15:12:21.841Z,11.48
2022-11-18T15:14:51.778Z,13.82
2022-11-18T15:17:20.430Z,15.95
2022-11-18T15:19:48.702Z,8.98
2022-11-18T15:22:15.311Z,12.30
2022-11-18T15:24:42.310Z,11.23
2022-11-18T15:27:10.531Z,7.68
2022-11-18T15:29:37.230Z,9.35
2022-11-18T15:32:05.453Z,7.93
2022-11-18T15:34:32.183Z,11.68
2022-11-18T15:36:58.892Z,8.68
2022-11-18T15:39:26.934Z,13.55
2022-11-18T15:41:53.584Z,14.27
2022-11-18T15:44:20.913Z,14.25
2022-11-18T15:46:48.169Z,10.15
2022-11-18T15:49:15.714Z,11.57
2022-11-18T15:51:42.747Z,12.38
2022-11-18T15:54:09.740Z,15.48
2022-11-18T15:56:37.408Z,9.55
2022-11-18T15:59:05.826Z,11.60
2022-11-18T16:01:33.944Z,10.75
2022-11-18T16:04:00.707Z,10.43
2022-11-18T16:06:31.018Z,17.05
2022-11-18T16:09:01.847Z,11.18
2022-11-18T16:14:32.143Z,14.40
2022-11-18T16:16:59.429Z,16.13
2022-11-18T16:19:26.883Z,16.83
2022-11-18T16:21:55.346Z,12.10
2022-11-18T16:24:23.467Z,10.50
2022-11-18T16:26:59.103Z,21.98
2022-11-18T16:29:25.900Z,11.93
2022-11-18T16:31:54.621Z,18.48
2022-11-18T16:34:25.355Z,14.95
2022-11-18T16:36:59.489Z,9.55
2022-11-18T16:39:32.218Z,12.45
2022-11-18T16:42:07.856Z,18.05
2022-11-18T16:44:35.851Z,13.27
2022-11-18T16:47:02.521Z,19.00
2022-11-18T16:49:31.766Z,15.57
2022-11-18T16:52:00.991Z,26.35
2022-11-18T16:54:29.291Z,20.73
2022-11-18T16:57:01.057Z,14.35
2022-11-18T16:59:28.875Z,19.00
2022-11-18T17:01:56.834Z,17.58
2022-11-18T17:04:26.806Z,14.73
2022-11-18T17:06:53.732Z,17.20
2022-11-18T17:09:22.483Z,15.68
2022-11-18T17:11:49.717Z,22.13
2022-11-18T17:14:16.465Z,18.90
2022-11-18T17:16:43.719Z,17.98
2022-11-18T17:19:13.482Z,31.63
2022-11-18T17:21:45.920Z,30.83
2022-11-18T17:24:17.641Z,33.67
2022-11-18T17:26:45.183Z,27.48
2022-11-18T17:29:14.936Z,35.03
2022-11-18T17:31:45.312Z,37.80
2022-11-18T17:34:13.213Z,25.65
2022-11-18T17:36:45.647Z,20.83
2022-11-18T17:39:13.571Z,25.95
2022-11-18T17:41:59.039Z,25.50
2022-11-18T17:44:27.451Z,22.25
2022-11-18T17:46:59.263Z,20.52
2022-11-18T17:49:25.973Z,25.50
2022-11-18T17:51:53.073Z,15.38
2022-11-18T17:54:22.880Z,17.17
2022-11-18T17:56:52.640Z,16.98
2022-11-18T17:59:25.507Z,15.63
2022-11-18T18:04:52.635Z,21.83
2022-11-18T18:07:28.085Z,17.30
2022-11-18T18:10:25.271Z,20.70
2022-11-18T18:13:10.665Z,23.45
2022-11-18T18:15:37.541Z,23.25
2022-11-18T18:18:04.787Z,23.30
2022-11-18T18:20:31.812Z,18.23
2022-11-18T18:22:58.675Z,22.95
2022-11-18T18:25:28.352Z,25.85
2022-11-18T18:27:59.774Z,22.90
2022-11-18T18:30:29.710Z,21.77
2022-11-18T18:32:56.721Z,20.67
2022-11-18T18:35:23.498Z,26.48
2022-11-18T18:37:50.150Z,20.55
2022-11-18T18:40:16.781Z,24.75
2022-11-18T18:42:43.363Z,18.05
2022-11-18T18:45:29.177Z,20.65
2022-11-18T18:47:58.954Z,20.88
2022-11-18T18:50:29.649Z,28.30
2022-11-18T18:53:02.757Z,21.90
2022-11-18T18:55:44.864Z,26.58
2022-11-18T18:58:12.804Z,33.50
2022-11-18T19:00:47.541Z,27.90
2022-11-18T19:03:26.461Z,25.75
2022-11-18T19:06:50.476Z,25.98
2022-11-18T19:09:51.600Z,21.90
2022-11-18T19:18:47.871Z,18.55
2022-11-18T19:21:25.187Z,23.05
2022-11-18T19:23:55.535Z,24.73
2022-11-18T19:26:36.941Z,23.52
2022-11-18T19:29:15.583Z,22.35
2022-11-18T19:31:42.614Z,24.38
2022-11-18T19:34:10.583Z,25.27
2022-11-18T19:36:37.525Z,25.90
2022-11-18T19:39:07.054Z,22.45
2022-11-18T19:41:34.101Z,22.95
2022-11-18T19:44:04.120Z,21.00
2022-11-18T19:46:48.014Z,25.38
2022-11-18T19:49:14.878Z,28.83
2022-11-18T19:51:41.814Z,23.55
2022-11-18T19:54:08.898Z,25.42
2022-11-18T19:56:41.690Z,22.35
2022-11-18T19:59:13.148Z,19.98
2022-11-18T20:01:55.998Z,24.67
2022-11-18T20:04:33.504Z,22.00
2022-11-18T20:07:07.792Z,26.08
2022-11-18T20:09:39.779Z,22.00
2022-11-18T20:12:10.022Z,24.65
2022-11-18T20:15:05.714Z,20.05
2022-11-18T20:21:08.298Z,27.17
2022-11-18T20:23:35.834Z,25.35
2022-11-18T20:26:06.049Z,22.40
2022-11-18T20:28:42.336Z,22.17
2022-11-18T20:31:11.111Z,24.10
2022-11-18T20:33:39.623Z,25.15
2022-11-18T20:36:17.057Z,26.60
2022-11-18T20:38:57.682Z,27.17
2022-11-18T20:41:28.727Z,24.23
2022-11-18T20:43:55.548Z,23.85
2022-11-18T20:46:22.876Z,32.92
2022-11-18T20:48:53.851Z,33.13
2022-11-18T20:51:24.934Z,25.27
2022-11-18T20:53:52.869Z,26.83
2022-11-18T20:56:21.919Z,27.40
2022-11-18T20:58:49.026Z,27.58
2022-11-18T21:01:20.700Z,29.33
2022-11-18T21:03:55.259Z,26.52
2022-11-18T21:06:29.470Z,31.08
2022-11-18T21:08:58.100Z,30.45
2022-11-18T21:11:25.748Z,32.47
2022-11-18T21:14:11.343Z,41.42
2022-11-18T21:16:38.313Z,46.05
2022-11-18T21:19:05.442Z,39.17
2022-11-18T21:21:47.527Z,35.17
2022-11-18T21:24:44.060Z,43.47
2022-11-18T21:27:11.046Z,39.58
2022-11-18T21:29:38.775Z,48.20
2022-11-18T21:32:08.150Z,42.13
2022-11-18T21:37:21.703Z,33.35
2022-11-18T21:40:00.367Z,34.40
2022-11-18T21:42:36.409Z,36.63
2022-11-18T21:45:07.219Z,40.25
2022-11-18T21:47:34.271Z,36.17
2022-11-18T21:50:01.068Z,39.92
2022-11-18T21:52:31.144Z,38.10
2022-11-18T21:55:03.878Z,42.10
2022-11-18T21:57:36.029Z,42.25
2022-11-18T22:00:03.958Z,39.25
2022-11-18T22:02:33.784Z,40.40
2022-11-18T22:07:52.137Z,43.35
2022-11-18T22:10:19.354Z,38.22
2022-11-18T22:12:52.332Z,38.75
2022-11-18T22:15:19.984Z,46.38
2022-11-18T22:17:47.263Z,45.13
2022-11-18T22:20:19.930Z,40.13
2022-11-18T22:22:46.790Z,41.77
2022-11-18T22:25:20.262Z,43.92
2022-11-18T22:30:18.354Z,39.25
2022-11-18T22:32:45.184Z,39.63
2022-11-18T22:35:20.603Z,35.03
2022-11-18T22:38:01.759Z,42.70
2022-11-18T22:40:30.963Z,36.90
2022-11-18T22:42:57.854Z,39.38
2022-11-18T22:45:24.826Z,37.08
2022-11-18T22:47:51.920Z,38.78
2022-11-18T22:50:18.821Z,41.53
2022-11-18T22:52:49.216Z,39.00
2022-11-18T22:55:18.042Z,41.47
2022-11-18T22:57:45.711Z,38.42
2022-11-18T23:00:13.108Z,43.30
2022-11-18T23:02:40.165Z,44.20
2022-11-18T23:05:08.561Z,45.53
2022-11-18T23:07:36.719Z,48.90
2022-11-18T23:10:03.698Z,49.80
2022-11-18T23:12:49.158Z,45.35
2022-11-18T23:15:18.422Z,42.72
2022-11-18T23:17:45.281Z,45.70
2022-11-18T23:20:12.050Z,41.63
2022-11-18T23:22:42.069Z,41.65
2022-11-18T23:25:08.922Z,49.75
2022-11-18T23:27:35.829Z,39.50
2022-11-18T23:30:05.284Z,40.83
2022-11-18T23:32:32.000Z,51.95
2022-11-18T23:34:58.622Z,46.25
2022-11-18T23:37:26.033Z,49.78
2022-11-18T23:39:53.077Z,46.92
2022-11-18T23:42:20.124Z,49.25
2022-11-18T23:44:47.282Z,41.40
2022-11-18T23:47:14.245Z,39.90
2022-11-18T23:49:41.009Z,47.55
2022-11-18T23:52:10.924Z,45.20
2022-11-18T23:54:37.759Z,42.00
2022-11-18T23:57:05.597Z,42.75
2022-11-18T23:59:32.573Z,44.95
